Nutting Lake, MA (01865)

4:29 AM EST on January 31, 2015 (GMT -0500)
Pinehurst | Change Station
CLOSE
Current Station
Personal Weather Station
Location: Billerica, MA
Elevation: 161 ft
Nearby Weather Stations
Active Advisory: Special Statement

Elev 161 ft 42.53 °N, 71.22 °W | Updated 4 seconds ago

Snow
Snow
11.9 °F
Feels Like -2 °F
N
12.0
Wind Variable Wind from West
Gusts 20.0 mph

Today
High -- | Low -- °F
--% Chance of Precip.
Yesterday
High -- | Low -- °F
Precip. -- in
7:00 AM 4:57 PM
Waxing Gibbous, 88% visible
Pressure 29.77 in
Visibility 10.0 miles
Clouds Overcast 4700 ft
Windchill -2 °F
Dew Point 3 °F
Humidity 66%
Rainfall 0.00 in
Snow Depth Not available.
UV 0 out of 12
Pollen .10 out of 12
Air Quality Not available.
Flu Activity Not available.
METAR KBED 310856Z AUTO 31016G24KT 10SM OVC047 M11/M17 A2977

More Conditions Fewer Conditions

Pressure 29.77 in
Visibility 10.0 miles
Clouds Overcast 4700 ft
Windchill -2 °F
Dew Point 3 °F
Humidity 66%
Rainfall 0.00 in
Snow Depth Not available.
UV 0 out of 12
Pollen .10 out of 12
Air Quality Not available.
Flu Activity Not available.
METAR KBED 310856Z AUTO 31016G24KT 10SM OVC047 M11/M17 A2977

More Conditions Fewer Conditions

10-Day Weather Forecast

Almanac

Astronomy

Jan. 31, 2015 Rise Set
Actual Time
Civil Twilight
Nautical Twilight
Astronomical Twilight
Moon
Length of Visible Light
Length of Day
Tomorrow will be .
, % of the Moon is Illuminated

Today's Extremes

State Highs State Lows

Community

WunderPhotos

Upload Photos

1,792,021 photos uploaded!

WunderBlogs® & News

Nearby

Air Quality

  Air Quality AQ Index Pollutant
Not available.

Snow Depth

Station Depth Elevation

Earthquake Activity

City Distance Mag. Time & Date
Minimum magnitude displayed is 2.5.

Coastal Water Temperatures

Place Temperature

Nearby Weather Stations